Time;durP1;ratioP1;P1;durP2;ratioP2;P2;SDS_P1;SDS_P2;PMS_P1;PMS_P2;Temp;Humidity;BMP_temperature;BMP_pressure;BME280_temperature;BME280_humidity;BME280_pressure;Samples;Min_cycle;Max_cycle;Signal;HPM_P1;HPM_P2
2021/09/26 00:02:13;;;;;;;22.55;12.30;;;16.40;99.90;;;16.84;94.06;101376.63;5084016;28;20310;-71
2021/09/26 00:04:40;;;;;;;25.60;13.75;;;16.30;99.90;;;16.83;93.75;101378.41;5084701;28;20196;-70
2021/09/26 00:07:07;;;;;;;25.50;12.73;;;16.30;99.90;;;16.82;93.68;101379.38;5093753;28;20285;-70
2021/09/26 00:09:34;;;;;;;27.00;13.27;;;16.30;99.90;;;16.81;93.54;101380.28;5096268;28;20227;-69
2021/09/26 00:12:01;;;;;;;24.20;12.35;;;16.30;99.90;;;16.80;93.68;101383.88;5094599;28;20215;-68
2021/09/26 00:14:28;;;;;;;23.98;12.07;;;16.30;99.90;;;16.81;94.13;101384.75;5089504;28;20196;-69
2021/09/26 00:16:58;;;;;;;26.02;12.77;;;16.30;99.90;;;16.80;93.75;101386.50;5089350;28;20188;-69
2021/09/26 00:19:26;;;;;;;23.15;13.30;;;16.30;99.90;;;16.80;94.02;101386.50;5095908;28;20195;-71
2021/09/26 00:21:54;;;;;;;25.95;12.70;;;16.30;99.90;;;16.81;94.07;101376.81;5093033;28;20191;-70
2021/09/26 00:24:21;;;;;;;25.25;12.77;;;16.30;99.90;;;16.82;94.04;101386.44;5091756;28;20203;-70
2021/09/26 00:26:47;;;;;;;22.73;12.13;;;16.30;99.90;;;16.83;93.78;101382.88;5088476;28;20601;-70
2021/09/26 00:29:15;;;;;;;21.70;11.98;;;16.30;99.90;;;16.83;93.47;101383.72;5080791;28;20195;-71
2021/09/26 00:31:42;;;;;;;23.33;12.80;;;16.20;99.90;;;16.84;93.90;101385.44;5090912;28;20219;-71
2021/09/26 00:34:09;;;;;;;24.30;12.45;;;16.30;99.90;;;16.84;93.60;101382.78;5087875;28;20195;-69
2021/09/26 00:36:37;;;;;;;21.40;11.93;;;16.30;99.90;;;16.84;93.57;101384.56;5084125;28;20196;-70
2021/09/26 00:39:04;;;;;;;21.88;12.05;;;16.30;99.90;;;16.85;93.78;101378.34;5088589;28;20187;-70
2021/09/26 00:41:31;;;;;;;23.38;12.20;;;16.30;99.90;;;16.85;93.78;101376.56;5088115;28;20214;-69
2021/09/26 00:43:58;;;;;;;23.13;12.35;;;16.30;99.90;;;16.87;93.63;101373.81;5092498;28;20342;-70
2021/09/26 00:46:25;;;;;;;23.10;12.45;;;16.30;99.90;;;16.87;93.52;101385.25;5094539;28;20222;-71
2021/09/26 00:48:52;;;;;;;23.35;11.73;;;16.30;99.90;;;16.89;93.75;101382.53;5094881;28;20195;-69
2021/09/26 00:51:19;;;;;;;20.27;11.27;;;16.30;99.90;;;16.88;93.47;101386.97;5092750;28;20195;-70
2021/09/26 00:53:48;;;;;;;21.98;11.25;;;16.40;99.90;;;16.91;93.71;101383.31;5088275;28;20310;-70
2021/09/26 00:56:15;;;;;;;21.88;12.18;;;16.40;99.90;;;16.93;93.88;101389.38;5092835;28;20191;-70
2021/09/26 00:58:42;;;;;;;21.48;12.05;;;16.40;99.90;;;16.94;93.52;101397.25;5088832;28;20191;-70
2021/09/26 01:01:09;;;;;;;22.98;11.07;;;16.40;99.90;;;16.95;93.47;101392.78;5094286;28;20195;-70
2021/09/26 01:03:36;;;;;;;20.67;11.35;;;16.40;99.90;;;16.97;93.42;101397.06;5089514;28;20643;-69
2021/09/26 01:06:30;;;;;;;25.25;12.23;;;16.40;99.90;;;16.98;93.49;101388.19;5096013;28;20215;-71
2021/09/26 01:09:06;;;;;;;23.02;12.25;;;16.50;99.90;;;17.00;93.66;101390.75;5093525;28;22295;-69
2021/09/26 01:11:52;;;;;;;24.77;12.10;;;16.50;99.90;;;17.00;93.44;101378.38;5093309;28;20915;-69
2021/09/26 01:14:29;;;;;;;24.98;13.27;;;16.50;99.90;;;17.00;93.28;101388.09;5094676;28;20199;-70
2021/09/26 01:17:08;;;;;;;22.58;12.38;;;16.50;99.90;;;17.00;93.25;101390.75;5087069;28;20199;-70
2021/09/26 01:19:55;;;;;;;22.90;12.70;;;16.50;99.90;;;17.00;93.40;101388.09;5087391;28;20198;-70
2021/09/26 01:22:42;;;;;;;24.00;12.70;;;16.50;99.90;;;16.97;92.99;101383.84;5090723;28;20208;-70
2021/09/26 01:25:36;;;;;;;21.38;12.07;;;16.50;99.90;;;16.95;93.39;101384.84;5084729;28;20200;-70
2021/09/26 01:28:27;;;;;;;21.88;12.68;;;16.50;99.90;;;16.94;93.32;101386.66;5092601;28;21010;-69
2021/09/26 01:30:59;;;;;;;22.90;12.68;;;16.50;99.90;;;16.93;93.33;101392.88;5091729;28;20188;-70
2021/09/26 01:33:32;;;;;;;24.88;13.45;;;16.50;99.90;;;16.95;93.29;101387.50;5086250;28;20255;-70
2021/09/26 01:36:05;;;;;;;24.05;13.20;;;16.40;99.90;;;16.92;93.49;101383.22;5093288;28;20208;-70
2021/09/26 01:38:41;;;;;;;24.90;13.20;;;16.40;99.90;;;16.92;93.48;101383.22;5091995;28;20196;-70
2021/09/26 01:41:16;;;;;;;23.02;13.88;;;16.40;99.90;;;16.90;93.42;101385.09;5089538;28;20552;-70
2021/09/26 01:43:49;;;;;;;26.02;13.95;;;16.40;99.90;;;16.88;93.33;101384.31;5094501;28;20226;-69
2021/09/26 01:46:25;;;;;;;24.98;13.95;;;16.40;99.90;;;16.85;93.03;101384.50;5093491;28;20208;-69
2021/09/26 01:49:01;;;;;;;24.77;13.57;;;16.30;99.90;;;16.83;93.28;101383.72;5091824;28;20209;-69
2021/09/26 01:51:35;;;;;;;25.92;14.27;;;16.30;99.90;;;16.82;93.77;101391.72;5095778;28;20187;-70
2021/09/26 01:54:04;;;;;;;25.15;13.48;;;16.30;99.90;;;16.79;93.47;101379.53;5092863;28;20223;-69
2021/09/26 01:56:34;;;;;;;25.75;14.05;;;16.30;99.90;;;16.78;93.60;101388.38;5092390;28;20270;-70
2021/09/26 01:59:02;;;;;;;21.88;13.10;;;16.30;99.90;;;16.75;93.66;101391.19;5091471;28;20191;-70
2021/09/26 02:01:31;;;;;;;22.10;13.85;;;16.30;99.90;;;16.75;93.50;101393.84;5094760;28;20670;-69
2021/09/26 02:03:58;;;;;;;25.40;13.77;;;16.20;99.90;;;16.71;93.60;101400.19;5087326;28;20236;-70
2021/09/26 02:06:26;;;;;;;25.88;13.15;;;16.20;99.90;;;16.71;93.64;101396.72;5088090;28;20215;-70
2021/09/26 02:08:53;;;;;;;24.55;13.35;;;16.20;99.90;;;16.72;93.81;101401.94;5089660;28;20192;-69
2021/09/26 02:11:20;;;;;;;24.25;12.88;;;16.20;99.90;;;16.74;93.99;101400.06;5090670;28;20200;-70
2021/09/26 02:13:50;;;;;;;23.98;13.23;;;16.20;99.90;;;16.76;93.81;101398.19;5106831;28;20266;-71
2021/09/26 02:16:19;;;;;;;25.13;13.57;;;16.30;99.90;;;16.76;93.77;101398.19;5091759;28;20195;-69
2021/09/26 02:18:48;;;;;;;23.25;13.52;;;16.30;99.90;;;16.78;93.54;101398.97;5091174;28;20218;-70
2021/09/26 02:21:16;;;;;;;23.45;13.02;;;16.20;99.90;;;16.79;93.70;101392.75;5091096;28;20223;-71
2021/09/26 02:23:43;;;;;;;25.63;13.60;;;16.30;99.90;;;16.81;93.47;101395.31;5107154;28;20260;-70
2021/09/26 02:26:11;;;;;;;23.48;13.25;;;16.30;99.90;;;16.81;93.88;101396.16;5097047;28;20223;-70
2021/09/26 02:28:38;;;;;;;22.77;12.82;;;16.30;99.90;;;16.82;93.32;101397.88;5085907;28;20657;-70
2021/09/26 02:31:08;;;;;;;25.30;13.07;;;16.30;99.90;;;16.83;93.62;101393.44;5083887;28;20192;-70
2021/09/26 02:33:36;;;;;;;22.35;12.52;;;16.30;99.90;;;16.84;93.17;101390.72;5090487;28;20211;-69
2021/09/26 02:36:07;;;;;;;22.45;13.50;;;16.30;99.90;;;16.86;93.41;101388.00;5087027;28;20191;-70
2021/09/26 02:38:37;;;;;;;23.02;12.23;;;16.30;99.90;;;16.85;93.56;101395.06;5101286;28;20195;-68
2021/09/26 02:41:14;;;;;;;24.90;13.05;;;16.40;99.90;;;16.87;93.44;101401.13;5089383;28;20199;-69
2021/09/26 02:43:53;;;;;;;23.63;12.98;;;16.40;99.90;;;16.89;93.31;101395.75;5089758;28;20222;-70
2021/09/26 02:46:30;;;;;;;26.10;13.60;;;16.40;99.90;;;16.90;93.33;101398.31;5088424;28;20222;-71
2021/09/26 02:48:58;;;;;;;26.15;12.82;;;16.40;99.90;;;16.90;93.39;101395.69;5088580;28;20194;-71
2021/09/26 02:51:27;;;;;;;22.95;13.02;;;16.40;99.90;;;16.92;93.62;101398.22;5089518;28;20191;-71
2021/09/26 02:53:57;;;;;;;24.30;13.18;;;16.40;99.90;;;16.92;93.05;101399.09;5088150;28;20214;-72
2021/09/26 02:56:26;;;;;;;25.35;12.80;;;16.40;99.90;;;16.92;93.41;101393.81;5096321;28;20192;-71
2021/09/26 02:58:59;;;;;;;24.85;13.80;;;16.50;99.90;;;16.93;93.47;101402.59;5090546;28;20187;-71
2021/09/26 03:01:27;;;;;;;22.92;13.45;;;16.40;99.90;;;16.93;93.09;101390.22;5109750;28;20278;-71
2021/09/26 03:04:01;;;;;;;25.48;12.85;;;16.40;99.90;;;16.94;93.16;101389.31;5092181;28;20235;-72
2021/09/26 03:06:30;;;;;;;25.48;12.20;;;16.40;99.90;;;16.96;92.96;101395.34;5104782;27;20207;-70
2021/09/26 03:08:58;;;;;;;22.98;12.85;;;16.50;99.90;;;16.97;93.13;101399.72;5090502;28;20195;-73
2021/09/26 03:11:25;;;;;;;24.10;12.45;;;16.50;99.90;;;16.98;93.24;101397.94;5091828;28;20191;-70
2021/09/26 03:13:52;;;;;;;26.00;12.93;;;16.50;99.90;;;16.98;93.01;101405.88;5089429;28;20252;-71
2021/09/26 03:16:18;;;;;;;24.40;12.95;;;16.50;99.90;;;16.99;93.18;101404.91;5087445;28;20221;-70
2021/09/26 03:18:45;;;;;;;26.10;12.63;;;16.50;99.90;;;16.99;93.23;101400.50;5087362;28;20191;-72
2021/09/26 03:21:13;;;;;;;26.48;12.73;;;16.50;99.90;;;17.00;92.77;101394.25;5085705;28;20195;-70
2021/09/26 03:23:42;;;;;;;22.73;12.77;;;16.50;99.90;;;17.02;93.11;101399.47;5088820;28;20223;-71
2021/09/26 03:26:09;;;;;;;24.42;13.00;;;16.50;99.90;;;17.02;92.70;101387.09;5084317;28;20229;-71
2021/09/26 03:28:36;;;;;;;24.80;13.25;;;16.60;99.90;;;17.02;92.66;101392.38;5085252;28;20188;-69
2021/09/26 03:31:03;;;;;;;27.80;12.57;;;16.60;99.90;;;17.01;92.85;101382.72;5089694;28;20208;-66
2021/09/26 03:33:30;;;;;;;22.98;12.02;;;16.50;99.90;;;17.03;92.79;101378.22;5091856;28;20260;-70
2021/09/26 03:35:57;;;;;;;21.92;12.15;;;16.60;99.90;;;17.04;92.97;101385.22;5091671;28;20671;-67
2021/09/26 03:38:24;;;;;;;23.63;12.45;;;16.60;99.90;;;17.04;92.93;101382.59;5092010;28;20608;-66
2021/09/26 03:40:52;;;;;;;23.50;12.43;;;16.60;99.90;;;17.06;92.57;101385.97;5087338;28;20233;-69
2021/09/26 03:43:19;;;;;;;24.15;12.43;;;16.60;99.90;;;17.06;92.58;101385.97;5091839;28;20574;-71
2021/09/26 03:45:50;;;;;;;23.40;12.55;;;16.60;99.90;;;17.07;92.62;101387.72;5090001;28;20215;-69
2021/09/26 03:48:17;;;;;;;23.95;12.52;;;16.60;99.90;;;17.06;92.60;101387.78;5093261;28;20191;-69
2021/09/26 03:50:44;;;;;;;21.67;11.95;;;16.60;99.90;;;17.06;92.67;101390.44;5082584;28;20213;-68
2021/09/26 03:53:11;;;;;;;24.63;13.60;;;16.60;99.90;;;17.06;93.03;101385.97;5093367;28;20707;-70
2021/09/26 03:55:38;;;;;;;23.00;12.35;;;16.60;99.90;;;17.06;92.62;101380.69;5083698;28;20192;-68
2021/09/26 03:58:06;;;;;;;22.52;12.77;;;16.60;99.90;;;17.07;92.69;101382.41;5088071;28;20195;-69
2021/09/26 04:00:33;;;;;;;24.67;13.02;;;16.60;99.90;;;17.07;92.63;101384.19;5086471;28;20244;-70
2021/09/26 04:03:00;;;;;;;22.63;12.75;;;16.60;99.90;;;17.06;92.70;101385.16;5087699;28;20624;-69
2021/09/26 04:05:27;;;;;;;23.77;12.50;;;16.60;99.90;;;17.07;92.97;101387.72;5079518;28;20192;-69
2021/09/26 04:07:54;;;;;;;22.92;12.65;;;16.60;99.90;;;17.07;93.08;101402.72;5087572;28;20245;-70
2021/09/26 04:10:21;;;;;;;23.30;12.23;;;16.60;99.90;;;17.07;93.07;101397.44;5083453;28;20565;-71
2021/09/26 04:12:49;;;;;;;21.45;12.73;;;16.60;99.90;;;17.07;92.84;101400.94;5079332;28;20219;-69
2021/09/26 04:15:19;;;;;;;23.17;12.43;;;16.60;99.90;;;17.07;92.94;101400.94;5091386;28;20210;-68
2021/09/26 04:17:46;;;;;;;23.33;12.50;;;16.60;99.90;;;17.07;92.80;101402.72;5092498;28;20199;-69
2021/09/26 04:20:13;;;;;;;22.27;12.52;;;16.60;99.90;;;17.08;92.93;101397.34;5089128;28;20214;-68
2021/09/26 04:22:40;;;;;;;23.55;11.93;;;16.60;99.90;;;17.07;92.79;101403.59;5090549;28;20224;-71
2021/09/26 04:28:00;;;;;;;20.20;12.02;;;16.60;99.90;;;17.06;93.12;101398.38;5020620;28;20322;-68
2021/09/26 04:30:28;;;;;;;21.27;11.65;;;16.60;99.90;;;17.05;93.27;101389.56;5015044;28;20202;-70
2021/09/26 04:32:55;;;;;;;22.38;12.48;;;16.60;99.90;;;17.05;93.23;101384.28;5017303;28;20210;-69
2021/09/26 04:35:22;;;;;;;22.52;12.27;;;16.60;99.90;;;17.06;93.33;101388.63;5023657;28;20260;-68
2021/09/26 04:37:50;;;;;;;22.75;12.05;;;16.60;99.90;;;17.05;93.32;101388.72;5014519;28;20198;-70
2021/09/26 04:40:17;;;;;;;21.13;12.38;;;16.60;99.90;;;17.03;93.16;101395.91;5012899;28;20270;-71
2021/09/26 04:42:44;;;;;;;22.42;12.90;;;16.60;99.90;;;17.02;93.41;101391.53;5005463;28;20211;-68
2021/09/26 04:45:17;;;;;;;24.55;11.45;;;16.60;99.90;;;17.01;93.22;101390.66;5020374;28;20236;-70
2021/09/26 04:47:58;;;;;;;25.55;13.63;;;16.60;99.90;;;17.00;93.45;101391.59;5014707;28;20218;-69
2021/09/26 04:50:25;;;;;;;20.02;11.13;;;16.60;99.90;;;17.00;93.77;101386.31;5009877;28;20190;-70
2021/09/26 04:52:56;;;;;;;22.70;11.40;;;16.50;99.90;;;17.02;93.59;101384.47;5023157;28;20269;-70
2021/09/26 04:55:24;;;;;;;22.38;12.00;;;16.50;99.90;;;17.02;93.54;101381.81;5018120;28;20195;-71
2021/09/26 04:57:51;;;;;;;21.75;11.35;;;16.60;99.90;;;17.04;93.66;101397.59;5007896;28;20860;-69
2021/09/26 05:00:24;;;;;;;21.83;11.40;;;16.60;99.90;;;17.04;93.22;101379.09;5013937;28;20690;-70
2021/09/26 05:02:56;;;;;;;19.35;11.13;;;16.60;99.90;;;17.04;93.69;101382.59;5019485;28;20220;-70
2021/09/26 05:05:25;;;;;;;21.88;10.43;;;16.60;99.90;;;17.04;93.28;101389.66;5023334;28;20193;-70
2021/09/26 05:07:52;;;;;;;21.23;11.25;;;16.60;99.90;;;17.05;93.47;101397.50;5012083;28;20203;-70
2021/09/26 05:10:19;;;;;;;21.10;10.88;;;16.60;99.90;;;17.06;93.60;101399.22;5004275;28;20203;-70
2021/09/26 05:12:46;;;;;;;18.67;10.65;;;16.60;99.90;;;17.07;93.65;101392.13;5013649;28;20206;-71
2021/09/26 05:18:10;;;;;;;21.13;11.10;;;16.60;99.90;;;17.08;93.51;101393.88;5000495;28;20205;-67
2021/09/26 05:20:39;;;;;;;19.55;10.75;;;16.60;99.90;;;17.07;93.07;101406.22;5005350;28;20183;-69
2021/09/26 05:23:08;;;;;;;18.08;10.07;;;16.60;99.90;;;17.10;93.28;101399.91;5006261;28;20214;-67
2021/09/26 05:25:40;;;;;;;16.92;10.02;;;16.60;99.90;;;17.10;93.43;101392.81;4992447;28;20205;-70
2021/09/26 05:28:07;;;;;;;20.80;10.18;;;16.60;99.90;;;17.13;93.22;101403.25;5008921;28;20234;-68
2021/09/26 05:30:38;;;;;;;20.48;10.10;;;16.70;99.90;;;17.13;93.13;101403.25;4985127;28;20218;-70
2021/09/26 05:33:08;;;;;;;22.77;11.27;;;16.70;99.90;;;17.16;93.27;101397.78;5004031;28;20221;-69
2021/09/26 05:35:44;;;;;;;20.73;10.60;;;16.60;99.90;;;17.18;93.61;101405.66;5009230;28;20194;-69
2021/09/26 05:38:23;;;;;;;19.40;10.57;;;16.60;99.90;;;17.18;93.09;101400.38;4992477;28;20210;-71
2021/09/26 05:40:50;;;;;;;20.98;10.55;;;16.70;99.90;;;17.17;93.25;101398.63;5026957;28;20194;-70
2021/09/26 05:43:19;;;;;;;18.70;10.55;;;16.70;99.90;;;17.18;92.86;101395.91;5024980;28;20210;-70
2021/09/26 05:45:51;;;;;;;20.42;9.68;;;16.60;99.90;;;17.18;92.94;101395.06;5008984;28;20218;-68
2021/09/26 05:48:19;;;;;;;18.85;10.73;;;16.70;99.90;;;17.19;93.11;101392.34;5013438;28;20194;-68
2021/09/26 05:50:48;;;;;;;19.35;10.40;;;16.70;99.90;;;17.22;93.35;101393.97;4980217;28;20234;-70
2021/09/26 05:53:15;;;;;;;19.67;10.35;;;16.70;99.90;;;17.23;92.94;101393.88;5019281;28;20207;-70
2021/09/26 05:55:42;;;;;;;20.33;10.38;;;16.80;99.90;;;17.24;93.12;101392.94;5012095;28;20668;-69
2021/09/26 05:58:11;;;;;;;18.10;9.90;;;16.80;99.90;;;17.27;93.22;101390.13;5015733;28;20198;-71
2021/09/26 06:00:38;;;;;;;18.13;10.32;;;16.80;99.90;;;17.29;93.00;101392.69;5008240;28;20206;-70
2021/09/26 06:03:05;;;;;;;20.50;10.40;;;16.80;99.90;;;17.31;92.81;101394.31;5019870;28;20229;-70
2021/09/26 06:05:32;;;;;;;20.00;10.10;;;16.90;99.90;;;17.34;92.54;101402.09;5004901;28;20205;-70
2021/09/26 06:08:01;;;;;;;19.80;10.35;;;16.90;99.90;;;17.37;92.80;101396.63;5022634;28;20214;-69
2021/09/26 06:10:30;;;;;;;21.85;10.13;;;16.90;99.90;;;17.39;93.09;101394.78;5010590;28;20194;-70
2021/09/26 06:12:57;;;;;;;20.90;10.07;;;16.90;99.90;;;17.39;92.59;101400.06;5002926;28;20214;-69
2021/09/26 06:15:24;;;;;;;21.02;11.07;;;17.00;99.90;;;17.41;92.60;101400.81;4999207;28;20199;-70
2021/09/26 06:17:51;;;;;;;19.65;9.77;;;17.00;99.90;;;17.44;92.42;101405.97;4988834;28;20197;-69
2021/09/26 06:20:18;;;;;;;20.58;9.88;;;17.00;99.90;;;17.48;92.53;101404.03;5011390;28;20668;-69
2021/09/26 06:22:45;;;;;;;20.48;10.38;;;17.00;99.90;;;17.50;92.32;101403.00;4996537;28;20253;-70
2021/09/26 06:25:13;;;;;;;18.70;9.70;;;17.10;99.90;;;17.51;92.01;101399.41;5001549;28;20359;-68
2021/09/26 06:27:39;;;;;;;21.13;10.18;;;17.10;99.90;;;17.54;92.05;101393.09;4997160;28;20241;-69
2021/09/26 06:30:09;;;;;;;20.30;10.43;;;17.20;99.90;;;17.56;92.21;101396.53;5000203;28;20198;-70
2021/09/26 06:32:36;;;;;;;18.75;10.07;;;17.10;99.90;;;17.57;91.53;101398.22;5005541;28;20269;-69
2021/09/26 06:35:07;;;;;;;18.70;9.80;;;17.10;99.90;;;17.59;91.69;101393.69;5004403;28;20209;-69
2021/09/26 06:37:34;;;;;;;18.75;10.18;;;17.10;99.90;;;17.61;91.49;101397.13;5011109;28;20250;-70
2021/09/26 06:40:01;;;;;;;18.80;10.05;;;17.20;99.90;;;17.63;91.56;101397.03;5002672;28;20194;-70
2021/09/26 06:42:29;;;;;;;18.30;10.20;;;17.20;99.90;;;17.66;91.55;101402.16;5004237;28;20226;-70
2021/09/26 06:44:56;;;;;;;18.77;10.05;;;17.20;99.90;;;17.68;91.52;101392.31;4997241;28;20265;-70
2021/09/26 06:47:23;;;;;;;21.52;10.45;;;17.20;99.90;;;17.69;91.11;101401.97;4992650;28;20232;-73
2021/09/26 06:49:50;;;;;;;17.42;9.48;;;17.30;99.90;;;17.72;91.43;101401.78;4999685;28;20194;-68
2021/09/26 06:52:16;;;;;;;17.55;9.48;;;17.30;99.90;;;17.76;91.16;101398.03;4982513;28;20351;-71
2021/09/26 06:54:43;;;;;;;18.20;9.90;;;17.30;99.90;;;17.78;91.26;101396.16;5009924;28;20198;-70
2021/09/26 06:57:10;;;;;;;16.17;8.90;;;17.30;99.90;;;17.81;90.93;101390.69;5001698;28;20531;-72
2021/09/26 06:59:39;;;;;;;18.85;9.50;;;17.40;99.90;;;17.85;90.67;101398.38;4992015;28;20191;-71
2021/09/26 07:02:07;;;;;;;18.23;9.32;;;17.40;99.90;;;17.89;90.73;101391.97;5000830;28;20221;-69
2021/09/26 07:04:34;;;;;;;18.35;9.38;;;17.50;99.90;;;17.91;90.70;101397.19;4999028;28;20191;-71
2021/09/26 07:07:01;;;;;;;17.45;9.48;;;17.50;99.90;;;17.93;90.90;101400.59;4991000;28;20217;-71
2021/09/26 07:09:28;;;;;;;17.92;9.73;;;17.50;99.90;;;17.94;90.43;101397.88;5000546;28;20199;-70
2021/09/26 07:11:54;;;;;;;18.08;8.93;;;17.50;99.90;;;17.96;90.56;101400.41;5003381;28;20559;-70
2021/09/26 07:14:21;;;;;;;19.27;9.60;;;17.60;99.90;;;17.99;90.22;101403.75;4997381;28;20202;-69
2021/09/26 07:16:49;;;;;;;16.27;9.30;;;17.60;99.90;;;18.03;90.18;101401.78;4978507;28;20239;-71
2021/09/26 07:19:16;;;;;;;18.20;9.23;;;17.60;99.90;;;18.04;90.33;101401.69;5006637;28;20640;-72
2021/09/26 07:21:43;;;;;;;17.08;8.48;;;17.70;99.90;;;18.09;90.17;101407.59;5002620;28;20262;-69
2021/09/26 07:24:10;;;;;;;18.20;9.63;;;17.70;99.90;;;18.14;89.90;101415.25;5000215;28;20198;-70
2021/09/26 07:26:37;;;;;;;17.83;9.35;;;17.70;99.90;;;18.17;89.88;101412.47;5005503;28;20674;-72
2021/09/26 07:29:04;;;;;;;19.20;10.40;;;17.80;99.90;;;18.21;89.43;101419.28;4984508;28;20203;-70
2021/09/26 07:31:31;;;;;;;19.92;10.27;;;17.80;99.90;;;18.24;89.40;101413.78;5001280;28;20929;-71
2021/09/26 07:33:59;;;;;;;18.52;9.70;;;17.80;99.90;;;18.27;89.38;101416.28;4994759;28;20229;-72
2021/09/26 07:36:26;;;;;;;17.35;8.93;;;17.90;99.90;;;18.29;89.21;101420.53;5002707;28;20195;-71
2021/09/26 07:38:52;;;;;;;16.90;8.45;;;17.90;99.90;;;18.33;88.80;101415.91;4993321;28;20256;-71
2021/09/26 07:41:19;;;;;;;18.73;9.40;;;18.00;99.90;;;18.37;88.44;101402.38;4982357;28;20260;-70
2021/09/26 07:43:46;;;;;;;19.08;8.98;;;18.00;99.90;;;18.42;88.86;101410.13;4989612;28;20264;-70
2021/09/26 07:46:12;;;;;;;15.73;9.32;;;18.10;99.90;;;18.47;88.34;101408.88;4990192;28;20206;-71
2021/09/26 07:48:39;;;;;;;18.55;9.90;;;18.10;99.90;;;18.51;87.79;101406.91;5004901;28;20219;-71
2021/09/26 07:51:08;;;;;;;16.73;9.32;;;18.20;99.90;;;18.58;87.06;101400.31;4988507;28;20264;-72
2021/09/26 07:53:35;;;;;;;18.10;10.25;;;18.30;99.90;;;18.64;86.70;101402.56;4993656;28;20702;-73
2021/09/26 07:56:03;;;;;;;17.25;8.48;;;18.30;99.90;;;18.71;86.35;101401.28;4988958;28;20281;-71
2021/09/26 07:58:30;;;;;;;14.27;8.63;;;18.40;99.90;;;18.78;85.57;101407.91;5002815;28;20240;-72
2021/09/26 08:00:57;;;;;;;17.50;9.00;;;18.50;99.90;;;18.82;85.72;101401.50;4978747;28;20195;-72
2021/09/26 08:03:25;;;;;;;14.55;8.35;;;18.60;99.90;;;18.85;85.62;101401.31;5005954;28;20225;-72
2021/09/26 08:05:52;;;;;;;15.60;8.25;;;18.60;99.90;;;18.88;85.14;101403.75;4995476;28;20205;-70
2021/09/26 08:08:20;;;;;;;16.52;8.30;;;18.60;99.90;;;18.92;85.59;101410.59;5001495;28;20214;-71
2021/09/26 08:10:46;;;;;;;18.10;8.38;;;18.60;99.90;;;18.96;85.60;101398.84;5000667;28;20286;-69
2021/09/26 08:13:14;;;;;;;16.00;8.13;;;18.70;99.90;;;19.00;85.55;101400.38;5000077;28;20228;-70
2021/09/26 08:15:41;;;;;;;15.52;8.40;;;18.70;99.90;;;19.03;84.99;101392.22;5007729;28;20194;-71
2021/09/26 08:18:08;;;;;;;14.07;7.75;;;18.80;99.90;;;19.09;84.89;101391.00;4992232;28;20197;-71
2021/09/26 08:20:35;;;;;;;15.95;8.23;;;18.80;99.90;;;19.14;84.37;101396.88;4989577;28;20190;-71
2021/09/26 08:23:01;;;;;;;14.82;7.88;;;18.90;99.90;;;19.19;84.27;101402.75;5012567;28;20226;-70
2021/09/26 08:25:30;;;;;;;15.45;7.75;;;18.90;99.90;;;19.24;84.06;101390.88;4984338;28;20849;-71
2021/09/26 08:27:57;;;;;;;15.73;7.43;;;19.00;99.90;;;19.28;83.81;101391.53;4993587;28;20222;-72
2021/09/26 08:30:24;;;;;;;13.43;6.93;;;19.00;99.90;;;19.32;83.57;101391.31;5005047;28;20753;-71
2021/09/26 08:32:51;;;;;;;13.95;7.13;;;19.10;99.90;;;19.36;83.62;101395.44;5009103;28;20222;-71
2021/09/26 08:35:18;;;;;;;14.57;7.30;;;19.10;99.90;;;19.45;82.90;101405.50;4994203;28;20651;-71
2021/09/26 08:37:45;;;;;;;14.88;7.10;;;19.20;99.90;;;19.51;82.03;101402.44;5003035;28;20195;-71
2021/09/26 08:40:14;;;;;;;12.77;6.38;;;19.30;99.90;;;19.57;81.82;101407.41;5009698;28;20202;-72
2021/09/26 08:42:42;;;;;;;12.30;6.28;;;19.40;99.90;;;19.63;80.51;101401.69;5008572;28;20262;-70
2021/09/26 08:45:14;;;;;;;16.73;6.82;;;19.50;99.90;;;19.69;80.57;101403.09;4990376;28;20601;-71
2021/09/26 08:47:42;;;;;;;14.07;6.53;;;19.50;99.90;;;19.73;79.56;101394.81;5006500;28;20660;-69
2021/09/26 08:50:12;;;;;;;15.05;7.00;;;19.60;99.90;;;19.78;79.32;101391.84;4986691;28;20194;-71
2021/09/26 08:52:41;;;;;;;13.57;6.90;;;19.60;99.90;;;19.82;79.35;101388.94;5008431;28;20641;-71
2021/09/26 08:55:10;;;;;;;13.93;7.43;;;19.70;99.90;;;19.88;78.80;101395.63;4988121;28;20630;-70
2021/09/26 08:57:37;;;;;;;13.43;7.35;;;19.70;99.90;;;19.93;78.93;101382.88;5002224;28;20194;-71
2021/09/26 09:00:09;;;;;;;14.48;7.75;;;19.80;99.90;;;19.95;79.02;101373.88;5004399;28;20202;-72
2021/09/26 09:02:36;;;;;;;11.82;6.80;;;19.80;99.90;;;19.99;77.99;101375.38;5003269;28;20843;-71
2021/09/26 09:05:06;;;;;;;11.85;6.35;;;19.90;99.90;;;20.07;77.60;101374.88;5017547;28;20210;-72
2021/09/26 09:07:33;;;;;;;11.57;6.18;;;20.00;99.90;;;20.15;77.76;101377.00;5026067;28;20217;-70
2021/09/26 09:10:04;;;;;;;13.15;6.57;;;20.10;99.90;;;20.22;77.52;101386.31;5006443;28;20198;-71
2021/09/26 09:12:36;;;;;;;13.43;6.72;;;20.10;99.90;;;20.26;77.72;101383.34;5000267;28;20221;-71
2021/09/26 09:15:08;;;;;;;15.23;7.68;;;20.20;99.90;;;20.33;76.60;101389.13;5008302;28;20213;-71
2021/09/26 09:17:39;;;;;;;13.80;6.70;;;20.20;99.90;;;20.38;76.93;101385.19;4997649;28;20673;-72
2021/09/26 09:20:21;;;;;;;13.63;6.85;;;20.30;99.90;;;20.45;76.73;101378.50;5009620;28;20225;-71
2021/09/26 09:22:51;;;;;;;13.07;6.25;;;20.40;99.90;;;20.50;76.25;101373.72;5010643;28;21017;-71
2021/09/26 09:25:35;;;;;;;11.85;6.45;;;20.40;99.90;;;20.58;75.39;101382.03;4997228;28;20202;-70
2021/09/26 09:28:07;;;;;;;13.13;6.75;;;20.50;99.90;;;20.63;75.31;101377.25;5002817;28;20218;-71
2021/09/26 09:30:39;;;;;;;13.07;6.53;;;20.60;99.90;;;20.70;74.92;101377.66;4992995;28;20230;-72
2021/09/26 09:33:08;;;;;;;11.65;5.82;;;20.70;99.90;;;20.75;74.18;101381.72;4999584;28;20218;-70
2021/09/26 09:35:41;;;;;;;12.07;6.10;;;20.70;99.90;;;20.81;74.23;101383.13;4995380;28;20632;-71
2021/09/26 09:38:09;;;;;;;13.73;7.93;;;20.80;99.90;;;20.83;74.79;101379.38;4999574;28;20201;-70
2021/09/26 09:40:37;;;;;;;13.73;7.03;;;20.80;99.90;;;20.86;74.57;101381.84;4995563;28;20195;-70
2021/09/26 09:43:05;;;;;;;12.77;6.13;;;20.80;99.90;;;20.89;73.95;101373.66;4992266;28;20285;-70
2021/09/26 09:45:36;;;;;;;10.35;5.82;;;20.90;99.90;;;20.94;74.12;101370.66;4995463;28;20281;-70
2021/09/26 09:48:11;;;;;;;14.30;7.07;;;21.00;99.90;;;21.01;73.64;101369.31;5007409;28;20213;-70
2021/09/26 09:50:58;;;;;;;11.40;6.25;;;21.00;99.90;;;21.07;73.38;101377.72;5002848;28;20189;-69
2021/09/26 09:53:36;;;;;;;12.20;6.10;;;21.10;99.90;;;21.12;73.54;101369.41;4997719;28;20222;-70
2021/09/26 09:56:18;;;;;;;11.85;6.05;;;21.10;99.90;;;21.15;72.65;101363.84;5003167;28;20208;-71
2021/09/26 09:58:48;;;;;;;11.98;5.68;;;21.20;99.90;;;21.18;73.01;101368.97;4990359;28;20203;-71
2021/09/26 10:01:25;;;;;;;11.70;5.80;;;21.20;99.90;;;21.23;72.74;101366.84;5000133;28;20204;-69
2021/09/26 10:03:54;;;;;;;11.60;6.18;;;21.20;99.90;;;21.27;72.56;101368.31;4998424;28;20218;-71
2021/09/26 10:06:38;;;;;;;10.80;6.15;;;21.30;99.90;;;21.34;72.64;101368.72;5001284;28;20201;-71
2021/09/26 10:09:22;;;;;;;12.98;5.75;;;21.30;99.90;;;21.36;72.33;101366.81;4983995;28;20229;-70
2021/09/26 10:11:51;;;;;;;13.23;6.22;;;21.40;99.90;;;21.34;72.38;101364.25;4999901;28;20190;-70
2021/09/26 10:14:20;;;;;;;13.40;6.60;;;21.40;99.90;;;21.35;72.11;101371.25;5005908;28;20683;-71
2021/09/26 10:16:52;;;;;;;13.48;6.15;;;21.40;99.90;;;21.40;71.73;101368.28;5014843;28;20202;-71
2021/09/26 10:19:21;;;;;;;11.18;5.65;;;21.50;99.90;;;21.47;71.13;101374.91;4999099;28;20191;-70